sensor_id;sensor_type;location;lat;lon;timestamp;P1;durP1;ratioP1;P2;durP2;ratioP2
81201;SDS011;71068;47.662;-2.750;2023-11-18T00:01:39;6.90;;;1.25;;
81201;SDS011;71068;47.662;-2.750;2023-11-18T00:04:07;5.38;;;0.95;;
81201;SDS011;71068;47.662;-2.750;2023-11-18T00:06:41;1.50;;;0.40;;
81201;SDS011;71068;47.662;-2.750;2023-11-18T00:09:10;6.50;;;1.05;;
81201;SDS011;71068;47.662;-2.750;2023-11-18T00:11:42;1.52;;;0.80;;
81201;SDS011;71068;47.662;-2.750;2023-11-18T00:14:10;0.60;;;0.60;;
81201;SDS011;71068;47.662;-2.750;2023-11-18T00:16:37;1.20;;;0.93;;
81201;SDS011;71068;47.662;-2.750;2023-11-18T00:19:04;2.78;;;0.60;;
81201;SDS011;71068;47.662;-2.750;2023-11-18T00:21:31;1.00;;;0.68;;
81201;SDS011;71068;47.662;-2.750;2023-11-18T00:23:57;3.47;;;0.95;;
81201;SDS011;71068;47.662;-2.750;2023-11-18T00:26:23;1.10;;;0.93;;
81201;SDS011;71068;47.662;-2.750;2023-11-18T00:28:51;4.85;;;1.25;;
81201;SDS011;71068;47.662;-2.750;2023-11-18T00:31:17;0.50;;;0.50;;
81201;SDS011;71068;47.662;-2.750;2023-11-18T00:33:45;0.65;;;0.63;;
81201;SDS011;71068;47.662;-2.750;2023-11-18T00:36:15;5.30;;;0.70;;
81201;SDS011;71068;47.662;-2.750;2023-11-18T00:38:41;0.50;;;0.50;;
81201;SDS011;71068;47.662;-2.750;2023-11-18T00:41:07;1.80;;;0.98;;
81201;SDS011;71068;47.662;-2.750;2023-11-18T00:43:33;0.38;;;0.38;;
81201;SDS011;71068;47.662;-2.750;2023-11-18T00:46:00;1.98;;;1.25;;
81201;SDS011;71068;47.662;-2.750;2023-11-18T00:48:26;4.97;;;0.90;;
81201;SDS011;71068;47.662;-2.750;2023-11-18T00:50:53;3.30;;;1.05;;
81201;SDS011;71068;47.662;-2.750;2023-11-18T00:53:19;5.30;;;1.67;;
81201;SDS011;71068;47.662;-2.750;2023-11-18T00:55:45;0.85;;;0.85;;
81201;SDS011;71068;47.662;-2.750;2023-11-18T00:58:11;3.05;;;1.08;;
81201;SDS011;71068;47.662;-2.750;2023-11-18T01:00:37;0.30;;;0.30;;
81201;SDS011;71068;47.662;-2.750;2023-11-18T01:03:02;6.82;;;0.90;;
81201;SDS011;71068;47.662;-2.750;2023-11-18T01:05:31;4.10;;;0.82;;
81201;SDS011;71068;47.662;-2.750;2023-11-18T01:07:57;2.75;;;0.93;;
81201;SDS011;71068;47.662;-2.750;2023-11-18T01:10:23;0.77;;;0.77;;
81201;SDS011;71068;47.662;-2.750;2023-11-18T01:12:49;2.35;;;0.80;;
81201;SDS011;71068;47.662;-2.750;2023-11-18T01:15:15;3.70;;;1.23;;
81201;SDS011;71068;47.662;-2.750;2023-11-18T01:17:43;1.77;;;0.65;;
81201;SDS011;71068;47.662;-2.750;2023-11-18T01:20:09;2.58;;;1.00;;
81201;SDS011;71068;47.662;-2.750;2023-11-18T01:22:37;6.35;;;1.02;;
81201;SDS011;71068;47.662;-2.750;2023-11-18T01:25:06;2.08;;;1.08;;
81201;SDS011;71068;47.662;-2.750;2023-11-18T01:27:34;3.15;;;1.02;;
81201;SDS011;71068;47.662;-2.750;2023-11-18T01:30:01;0.55;;;0.52;;
81201;SDS011;71068;47.662;-2.750;2023-11-18T01:32:29;7.35;;;1.17;;
81201;SDS011;71068;47.662;-2.750;2023-11-18T01:34:56;7.63;;;1.15;;
81201;SDS011;71068;47.662;-2.750;2023-11-18T01:39:50;5.13;;;1.17;;
81201;SDS011;71068;47.662;-2.750;2023-11-18T01:42:16;4.25;;;1.13;;
81201;SDS011;71068;47.662;-2.750;2023-11-18T01:44:43;2.75;;;1.10;;
81201;SDS011;71068;47.662;-2.750;2023-11-18T01:47:12;2.33;;;0.73;;
81201;SDS011;71068;47.662;-2.750;2023-11-18T01:49:39;11.93;;;1.25;;
81201;SDS011;71068;47.662;-2.750;2023-11-18T01:52:08;6.00;;;2.05;;
81201;SDS011;71068;47.662;-2.750;2023-11-18T01:54:38;5.57;;;0.95;;
81201;SDS011;71068;47.662;-2.750;2023-11-18T01:57:05;3.55;;;0.90;;
81201;SDS011;71068;47.662;-2.750;2023-11-18T01:59:34;5.20;;;0.90;;
81201;SDS011;71068;47.662;-2.750;2023-11-18T02:02:03;0.70;;;0.70;;
81201;SDS011;71068;47.662;-2.750;2023-11-18T02:04:33;2.53;;;0.77;;
81201;SDS011;71068;47.662;-2.750;2023-11-18T02:06:59;2.83;;;1.70;;
81201;SDS011;71068;47.662;-2.750;2023-11-18T02:09:29;4.32;;;0.98;;
81201;SDS011;71068;47.662;-2.750;2023-11-18T02:14:49;2.90;;;0.93;;
81201;SDS011;71068;47.662;-2.750;2023-11-18T02:17:17;6.78;;;1.25;;
81201;SDS011;71068;47.662;-2.750;2023-11-18T02:19:50;3.85;;;1.45;;
81201;SDS011;71068;47.662;-2.750;2023-11-18T02:22:19;1.95;;;0.95;;
81201;SDS011;71068;47.662;-2.750;2023-11-18T02:24:47;1.95;;;0.70;;
81201;SDS011;71068;47.662;-2.750;2023-11-18T02:27:14;5.93;;;0.93;;
81201;SDS011;71068;47.662;-2.750;2023-11-18T02:29:42;4.25;;;0.70;;
81201;SDS011;71068;47.662;-2.750;2023-11-18T02:35:04;0.60;;;0.60;;
81201;SDS011;71068;47.662;-2.750;2023-11-18T02:37:42;5.13;;;1.38;;
81201;SDS011;71068;47.662;-2.750;2023-11-18T02:40:14;4.07;;;1.23;;
81201;SDS011;71068;47.662;-2.750;2023-11-18T02:42:50;9.48;;;1.52;;
81201;SDS011;71068;47.662;-2.750;2023-11-18T02:45:18;8.32;;;1.23;;
81201;SDS011;71068;47.662;-2.750;2023-11-18T02:47:46;5.47;;;0.70;;
81201;SDS011;71068;47.662;-2.750;2023-11-18T02:50:19;7.10;;;1.65;;
81201;SDS011;71068;47.662;-2.750;2023-11-18T02:52:48;6.63;;;1.85;;
81201;SDS011;71068;47.662;-2.750;2023-11-18T02:55:14;5.07;;;1.00;;
81201;SDS011;71068;47.662;-2.750;2023-11-18T02:57:40;4.53;;;1.02;;
81201;SDS011;71068;47.662;-2.750;2023-11-18T03:00:06;10.73;;;1.42;;
81201;SDS011;71068;47.662;-2.750;2023-11-18T03:02:45;4.55;;;1.30;;
81201;SDS011;71068;47.662;-2.750;2023-11-18T03:05:12;7.85;;;0.98;;
81201;SDS011;71068;47.662;-2.750;2023-11-18T03:07:44;6.15;;;1.63;;
81201;SDS011;71068;47.662;-2.750;2023-11-18T03:10:15;7.30;;;1.02;;
81201;SDS011;71068;47.662;-2.750;2023-11-18T03:12:47;3.97;;;1.00;;
81201;SDS011;71068;47.662;-2.750;2023-11-18T03:15:18;2.95;;;0.75;;
81201;SDS011;71068;47.662;-2.750;2023-11-18T03:17:47;8.50;;;1.40;;
81201;SDS011;71068;47.662;-2.750;2023-11-18T03:20:15;3.65;;;1.80;;
81201;SDS011;71068;47.662;-2.750;2023-11-18T03:22:43;3.25;;;0.95;;
81201;SDS011;71068;47.662;-2.750;2023-11-18T03:25:13;1.30;;;1.20;;
81201;SDS011;71068;47.662;-2.750;2023-11-18T03:27:40;6.80;;;1.10;;
81201;SDS011;71068;47.662;-2.750;2023-11-18T03:30:06;11.38;;;1.40;;
81201;SDS011;71068;47.662;-2.750;2023-11-18T03:32:34;5.28;;;1.05;;
81201;SDS011;71068;47.662;-2.750;2023-11-18T03:35:04;5.30;;;1.02;;
81201;SDS011;71068;47.662;-2.750;2023-11-18T03:37:34;7.85;;;2.10;;
81201;SDS011;71068;47.662;-2.750;2023-11-18T03:40:17;7.03;;;1.10;;
81201;SDS011;71068;47.662;-2.750;2023-11-18T03:42:43;5.10;;;1.95;;
81201;SDS011;71068;47.662;-2.750;2023-11-18T03:45:12;1.55;;;0.60;;
81201;SDS011;71068;47.662;-2.750;2023-11-18T03:47:43;4.88;;;1.05;;
81201;SDS011;71068;47.662;-2.750;2023-11-18T03:50:10;16.58;;;2.35;;
81201;SDS011;71068;47.662;-2.750;2023-11-18T03:55:04;7.75;;;1.63;;
81201;SDS011;71068;47.662;-2.750;2023-11-18T03:57:33;12.45;;;2.08;;
81201;SDS011;71068;47.662;-2.750;2023-11-18T04:00:00;3.13;;;0.98;;
81201;SDS011;71068;47.662;-2.750;2023-11-18T04:02:29;9.23;;;1.30;;
81201;SDS011;71068;47.662;-2.750;2023-11-18T04:04:57;7.35;;;1.63;;
81201;SDS011;71068;47.662;-2.750;2023-11-18T04:07:23;9.00;;;2.22;;
81201;SDS011;71068;47.662;-2.750;2023-11-18T04:09:49;9.95;;;1.45;;
81201;SDS011;71068;47.662;-2.750;2023-11-18T04:12:15;12.30;;;2.42;;
81201;SDS011;71068;47.662;-2.750;2023-11-18T04:14:42;21.00;;;2.78;;
81201;SDS011;71068;47.662;-2.750;2023-11-18T04:17:08;13.25;;;2.70;;
81201;SDS011;71068;47.662;-2.750;2023-11-18T04:19:34;9.95;;;2.05;;
81201;SDS011;71068;47.662;-2.750;2023-11-18T04:22:00;7.65;;;1.42;;
81201;SDS011;71068;47.662;-2.750;2023-11-18T04:24:26;12.15;;;2.75;;
81201;SDS011;71068;47.662;-2.750;2023-11-18T04:26:55;5.68;;;1.50;;
81201;SDS011;71068;47.662;-2.750;2023-11-18T04:29:22;15.63;;;2.42;;
81201;SDS011;71068;47.662;-2.750;2023-11-18T04:31:48;10.60;;;2.17;;
81201;SDS011;71068;47.662;-2.750;2023-11-18T04:34:14;7.72;;;1.35;;
81201;SDS011;71068;47.662;-2.750;2023-11-18T04:36:41;0.93;;;0.70;;
81201;SDS011;71068;47.662;-2.750;2023-11-18T04:39:07;11.13;;;2.55;;
81201;SDS011;71068;47.662;-2.750;2023-11-18T04:41:39;5.82;;;1.15;;
81201;SDS011;71068;47.662;-2.750;2023-11-18T04:44:06;11.30;;;2.22;;
81201;SDS011;71068;47.662;-2.750;2023-11-18T04:46:32;14.10;;;1.95;;
81201;SDS011;71068;47.662;-2.750;2023-11-18T04:48:59;8.05;;;2.08;;
81201;SDS011;71068;47.662;-2.750;2023-11-18T04:51:27;5.78;;;1.92;;
81201;SDS011;71068;47.662;-2.750;2023-11-18T04:53:56;6.03;;;1.02;;
81201;SDS011;71068;47.662;-2.750;2023-11-18T04:56:22;10.18;;;1.92;;
81201;SDS011;71068;47.662;-2.750;2023-11-18T04:58:48;4.82;;;1.25;;
81201;SDS011;71068;47.662;-2.750;2023-11-18T05:01:14;7.40;;;1.75;;
81201;SDS011;71068;47.662;-2.750;2023-11-18T05:03:40;3.45;;;1.55;;
81201;SDS011;71068;47.662;-2.750;2023-11-18T05:06:06;11.07;;;1.80;;
81201;SDS011;71068;47.662;-2.750;2023-11-18T05:08:33;2.30;;;1.08;;
81201;SDS011;71068;47.662;-2.750;2023-11-18T05:11:01;9.27;;;2.10;;
81201;SDS011;71068;47.662;-2.750;2023-11-18T05:13:30;8.02;;;1.65;;
81201;SDS011;71068;47.662;-2.750;2023-11-18T05:15:56;0.80;;;0.80;;
81201;SDS011;71068;47.662;-2.750;2023-11-18T05:18:22;7.43;;;1.83;;
81201;SDS011;71068;47.662;-2.750;2023-11-18T05:20:48;3.35;;;1.08;;
81201;SDS011;71068;47.662;-2.750;2023-11-18T05:23:14;3.17;;;1.50;;
81201;SDS011;71068;47.662;-2.750;2023-11-18T05:25:40;4.45;;;1.58;;
81201;SDS011;71068;47.662;-2.750;2023-11-18T05:28:09;0.55;;;0.28;;
81201;SDS011;71068;47.662;-2.750;2023-11-18T05:30:36;4.60;;;1.30;;
81201;SDS011;71068;47.662;-2.750;2023-11-18T05:33:04;5.43;;;1.45;;
81201;SDS011;71068;47.662;-2.750;2023-11-18T05:35:33;1.55;;;0.75;;
81201;SDS011;71068;47.662;-2.750;2023-11-18T05:38:00;5.95;;;1.20;;
81201;SDS011;71068;47.662;-2.750;2023-11-18T05:40:28;5.15;;;1.33;;
81201;SDS011;71068;47.662;-2.750;2023-11-18T05:42:55;2.63;;;0.85;;
81201;SDS011;71068;47.662;-2.750;2023-11-18T05:45:22;4.65;;;0.90;;
81201;SDS011;71068;47.662;-2.750;2023-11-18T05:48:00;4.20;;;1.20;;
81201;SDS011;71068;47.662;-2.750;2023-11-18T05:50:25;4.53;;;1.20;;
81201;SDS011;71068;47.662;-2.750;2023-11-18T05:52:52;1.92;;;0.93;;
81201;SDS011;71068;47.662;-2.750;2023-11-18T05:55:19;5.07;;;1.67;;
81201;SDS011;71068;47.662;-2.750;2023-11-18T05:57:48;5.03;;;1.42;;
81201;SDS011;71068;47.662;-2.750;2023-11-18T06:00:14;3.60;;;1.25;;
81201;SDS011;71068;47.662;-2.750;2023-11-18T06:02:44;1.75;;;0.95;;
81201;SDS011;71068;47.662;-2.750;2023-11-18T06:05:10;7.22;;;1.55;;
81201;SDS011;71068;47.662;-2.750;2023-11-18T06:07:40;2.10;;;1.23;;
81201;SDS011;71068;47.662;-2.750;2023-11-18T06:10:08;1.60;;;0.82;;
81201;SDS011;71068;47.662;-2.750;2023-11-18T06:12:34;4.93;;;1.38;;
81201;SDS011;71068;47.662;-2.750;2023-11-18T06:15:02;1.77;;;1.05;;
81201;SDS011;71068;47.662;-2.750;2023-11-18T06:17:28;5.35;;;1.00;;
81201;SDS011;71068;47.662;-2.750;2023-11-18T06:19:54;1.60;;;0.85;;
81201;SDS011;71068;47.662;-2.750;2023-11-18T06:22:20;0.45;;;0.45;;
81201;SDS011;71068;47.662;-2.750;2023-11-18T06:24:46;1.98;;;1.08;;
81201;SDS011;71068;47.662;-2.750;2023-11-18T06:27:12;3.97;;;1.35;;
81201;SDS011;71068;47.662;-2.750;2023-11-18T06:29:38;6.18;;;1.10;;
81201;SDS011;71068;47.662;-2.750;2023-11-18T06:32:05;0.75;;;0.57;;
81201;SDS011;71068;47.662;-2.750;2023-11-18T06:34:33;4.25;;;1.95;;
81201;SDS011;71068;47.662;-2.750;2023-11-18T06:37:00;4.40;;;1.23;;
81201;SDS011;71068;47.662;-2.750;2023-11-18T06:39:26;8.50;;;1.50;;
81201;SDS011;71068;47.662;-2.750;2023-11-18T06:41:55;8.30;;;1.88;;
81201;SDS011;71068;47.662;-2.750;2023-11-18T06:44:27;0.63;;;0.57;;
81201;SDS011;71068;47.662;-2.750;2023-11-18T06:46:54;5.22;;;1.20;;
81201;SDS011;71068;47.662;-2.750;2023-11-18T06:49:20;2.20;;;0.77;;
81201;SDS011;71068;47.662;-2.750;2023-11-18T06:51:46;5.18;;;1.77;;
81201;SDS011;71068;47.662;-2.750;2023-11-18T06:54:12;9.10;;;1.45;;
81201;SDS011;71068;47.662;-2.750;2023-11-18T06:56:42;8.32;;;1.85;;
81201;SDS011;71068;47.662;-2.750;2023-11-18T06:59:09;6.32;;;1.60;;
81201;SDS011;71068;47.662;-2.750;2023-11-18T07:01:45;2.75;;;0.60;;
81201;SDS011;71068;47.662;-2.750;2023-11-18T07:04:11;7.18;;;2.75;;
81201;SDS011;71068;47.662;-2.750;2023-11-18T07:06:37;5.03;;;1.52;;
81201;SDS011;71068;47.662;-2.750;2023-11-18T07:09:04;12.65;;;1.77;;
81201;SDS011;71068;47.662;-2.750;2023-11-18T07:11:38;6.20;;;1.92;;
81201;SDS011;71068;47.662;-2.750;2023-11-18T07:14:07;7.53;;;1.77;;
81201;SDS011;71068;47.662;-2.750;2023-11-18T07:16:40;8.35;;;1.55;;
81201;SDS011;71068;47.662;-2.750;2023-11-18T07:19:08;7.68;;;2.00;;
81201;SDS011;71068;47.662;-2.750;2023-11-18T07:21:40;6.97;;;3.35;;
81201;SDS011;71068;47.662;-2.750;2023-11-18T07:24:06;8.65;;;2.28;;
81201;SDS011;71068;47.662;-2.750;2023-11-18T07:26:33;12.98;;;2.35;;
81201;SDS011;71068;47.662;-2.750;2023-11-18T07:28:59;13.75;;;1.65;;
81201;SDS011;71068;47.662;-2.750;2023-11-18T07:31:25;5.40;;;1.70;;
81201;SDS011;71068;47.662;-2.750;2023-11-18T07:33:51;9.13;;;1.27;;
81201;SDS011;71068;47.662;-2.750;2023-11-18T07:36:17;4.72;;;2.58;;
81201;SDS011;71068;47.662;-2.750;2023-11-18T07:38:46;11.70;;;2.40;;
81201;SDS011;71068;47.662;-2.750;2023-11-18T07:41:12;8.82;;;2.85;;
81201;SDS011;71068;47.662;-2.750;2023-11-18T07:43:53;5.90;;;2.10;;
81201;SDS011;71068;47.662;-2.750;2023-11-18T07:46:21;10.52;;;2.30;;
81201;SDS011;71068;47.662;-2.750;2023-11-18T07:48:48;6.85;;;2.35;;
81201;SDS011;71068;47.662;-2.750;2023-11-18T07:51:17;14.52;;;2.58;;
81201;SDS011;71068;47.662;-2.750;2023-11-18T07:53:47;12.38;;;2.08;;
81201;SDS011;71068;47.662;-2.750;2023-11-18T07:56:14;8.63;;;1.85;;
81201;SDS011;71068;47.662;-2.750;2023-11-18T07:58:42;6.53;;;2.10;;
81201;SDS011;71068;47.662;-2.750;2023-11-18T08:01:11;2.55;;;0.95;;
81201;SDS011;71068;47.662;-2.750;2023-11-18T08:03:38;2.22;;;0.85;;
81201;SDS011;71068;47.662;-2.750;2023-11-18T08:06:06;1.27;;;0.80;;
81201;SDS011;71068;47.662;-2.750;2023-11-18T08:08:34;4.40;;;1.17;;
81201;SDS011;71068;47.662;-2.750;2023-11-18T08:11:03;7.60;;;1.80;;
81201;SDS011;71068;47.662;-2.750;2023-11-18T08:13:30;8.43;;;1.85;;
81201;SDS011;71068;47.662;-2.750;2023-11-18T08:15:59;7.80;;;1.77;;
81201;SDS011;71068;47.662;-2.750;2023-11-18T08:18:27;2.78;;;1.13;;
81201;SDS011;71068;47.662;-2.750;2023-11-18T08:20:56;1.23;;;0.77;;
81201;SDS011;71068;47.662;-2.750;2023-11-18T08:23:22;12.68;;;2.53;;
81201;SDS011;71068;47.662;-2.750;2023-11-18T08:25:48;8.95;;;1.65;;
81201;SDS011;71068;47.662;-2.750;2023-11-18T08:28:18;11.80;;;2.80;;
81201;SDS011;71068;47.662;-2.750;2023-11-18T08:30:45;2.28;;;1.60;;
81201;SDS011;71068;47.662;-2.750;2023-11-18T08:33:13;8.48;;;2.03;;
81201;SDS011;71068;47.662;-2.750;2023-11-18T08:35:40;9.80;;;2.42;;
81201;SDS011;71068;47.662;-2.750;2023-11-18T08:38:07;8.80;;;2.20;;
81201;SDS011;71068;47.662;-2.750;2023-11-18T08:40:33;9.80;;;2.10;;
81201;SDS011;71068;47.662;-2.750;2023-11-18T08:42:59;3.60;;;1.55;;
81201;SDS011;71068;47.662;-2.750;2023-11-18T08:45:26;6.13;;;1.73;;
81201;SDS011;71068;47.662;-2.750;2023-11-18T08:48:00;4.68;;;2.08;;
81201;SDS011;71068;47.662;-2.750;2023-11-18T08:50:32;11.50;;;2.60;;
81201;SDS011;71068;47.662;-2.750;2023-11-18T08:53:00;10.25;;;2.20;;
81201;SDS011;71068;47.662;-2.750;2023-11-18T08:55:33;14.20;;;2.35;;
81201;SDS011;71068;47.662;-2.750;2023-11-18T08:58:08;9.52;;;2.28;;
81201;SDS011;71068;47.662;-2.750;2023-11-18T09:00:44;13.70;;;2.67;;
81201;SDS011;71068;47.662;-2.750;2023-11-18T09:03:29;10.60;;;2.10;;
81201;SDS011;71068;47.662;-2.750;2023-11-18T09:06:05;3.78;;;1.45;;
81201;SDS011;71068;47.662;-2.750;2023-11-18T09:08:42;13.30;;;2.83;;
81201;SDS011;71068;47.662;-2.750;2023-11-18T09:11:11;1.60;;;1.10;;
81201;SDS011;71068;47.662;-2.750;2023-11-18T09:13:41;5.78;;;1.80;;
81201;SDS011;71068;47.662;-2.750;2023-11-18T09:16:15;10.55;;;2.13;;
81201;SDS011;71068;47.662;-2.750;2023-11-18T09:18:43;12.27;;;3.05;;
81201;SDS011;71068;47.662;-2.750;2023-11-18T09:21:16;7.28;;;2.13;;
81201;SDS011;71068;47.662;-2.750;2023-11-18T09:23:50;14.70;;;1.90;;
81201;SDS011;71068;47.662;-2.750;2023-11-18T09:28:48;4.88;;;1.35;;
81201;SDS011;71068;47.662;-2.750;2023-11-18T09:33:59;9.75;;;2.20;;
81201;SDS011;71068;47.662;-2.750;2023-11-18T09:36:26;4.25;;;2.05;;
81201;SDS011;71068;47.662;-2.750;2023-11-18T09:38:53;12.70;;;3.13;;
81201;SDS011;71068;47.662;-2.750;2023-11-18T09:41:23;13.02;;;1.83;;
81201;SDS011;71068;47.662;-2.750;2023-11-18T09:43:53;4.45;;;1.67;;
81201;SDS011;71068;47.662;-2.750;2023-11-18T09:46:26;8.55;;;2.58;;
81201;SDS011;71068;47.662;-2.750;2023-11-18T09:51:55;7.55;;;2.00;;
81201;SDS011;71068;47.662;-2.750;2023-11-18T09:57:30;16.05;;;3.13;;
81201;SDS011;71068;47.662;-2.750;2023-11-18T10:00:03;3.00;;;1.42;;
81201;SDS011;71068;47.662;-2.750;2023-11-18T10:02:45;2.88;;;1.35;;
81201;SDS011;71068;47.662;-2.750;2023-11-18T10:05:27;4.63;;;2.40;;
81201;SDS011;71068;47.662;-2.750;2023-11-18T10:08:00;6.05;;;2.05;;
81201;SDS011;71068;47.662;-2.750;2023-11-18T10:10:37;14.57;;;2.83;;
81201;SDS011;71068;47.662;-2.750;2023-11-18T10:13:12;5.97;;;2.35;;
81201;SDS011;71068;47.662;-2.750;2023-11-18T10:15:49;6.93;;;1.30;;
81201;SDS011;71068;47.662;-2.750;2023-11-18T10:18:22;8.02;;;2.47;;
81201;SDS011;71068;47.662;-2.750;2023-11-18T10:20:49;8.20;;;2.45;;
81201;SDS011;71068;47.662;-2.750;2023-11-18T10:23:22;9.80;;;1.90;;
81201;SDS011;71068;47.662;-2.750;2023-11-18T10:25:52;12.18;;;2.67;;
81201;SDS011;71068;47.662;-2.750;2023-11-18T10:28:33;8.70;;;2.75;;
81201;SDS011;71068;47.662;-2.750;2023-11-18T10:31:03;11.90;;;2.35;;
81201;SDS011;71068;47.662;-2.750;2023-11-18T10:33:35;3.33;;;2.25;;
81201;SDS011;71068;47.662;-2.750;2023-11-18T10:36:19;15.25;;;3.15;;
81201;SDS011;71068;47.662;-2.750;2023-11-18T10:38:53;12.05;;;2.53;;
81201;SDS011;71068;47.662;-2.750;2023-11-18T10:41:22;14.57;;;3.42;;
81201;SDS011;71068;47.662;-2.750;2023-11-18T10:43:48;2.88;;;1.10;;
81201;SDS011;71068;47.662;-2.750;2023-11-18T10:46:17;7.97;;;2.60;;
81201;SDS011;71068;47.662;-2.750;2023-11-18T10:48:50;9.30;;;3.17;;
81201;SDS011;71068;47.662;-2.750;2023-11-18T10:51:28;11.88;;;3.25;;
81201;SDS011;71068;47.662;-2.750;2023-11-18T10:53:58;13.20;;;3.47;;
81201;SDS011;71068;47.662;-2.750;2023-11-18T10:56:26;8.57;;;3.10;;
81201;SDS011;71068;47.662;-2.750;2023-11-18T10:59:04;7.55;;;2.47;;
81201;SDS011;71068;47.662;-2.750;2023-11-18T11:01:32;7.85;;;3.20;;
81201;SDS011;71068;47.662;-2.750;2023-11-18T11:03:58;6.63;;;2.20;;
81201;SDS011;71068;47.662;-2.750;2023-11-18T11:06:29;5.38;;;2.15;;
81201;SDS011;71068;47.662;-2.750;2023-11-18T11:08:57;8.15;;;2.38;;
81201;SDS011;71068;47.662;-2.750;2023-11-18T11:11:24;7.50;;;2.10;;
81201;SDS011;71068;47.662;-2.750;2023-11-18T11:14:02;4.35;;;1.65;;
81201;SDS011;71068;47.662;-2.750;2023-11-18T11:16:37;9.77;;;2.25;;
81201;SDS011;71068;47.662;-2.750;2023-11-18T11:19:24;12.80;;;2.83;;
81201;SDS011;71068;47.662;-2.750;2023-11-18T11:22:10;13.32;;;2.67;;
81201;SDS011;71068;47.662;-2.750;2023-11-18T11:27:47;12.38;;;2.08;;
81201;SDS011;71068;47.662;-2.750;2023-11-18T11:30:33;13.98;;;3.25;;
81201;SDS011;71068;47.662;-2.750;2023-11-18T11:35:48;1.75;;;1.27;;
81201;SDS011;71068;47.662;-2.750;2023-11-18T11:38:25;7.30;;;2.10;;
81201;SDS011;71068;47.662;-2.750;2023-11-18T11:40:57;3.92;;;1.40;;
81201;SDS011;71068;47.662;-2.750;2023-11-18T11:43:27;2.90;;;1.75;;
81201;SDS011;71068;47.662;-2.750;2023-11-18T11:45:54;8.38;;;2.28;;
81201;SDS011;71068;47.662;-2.750;2023-11-18T11:48:24;13.98;;;3.05;;
81201;SDS011;71068;47.662;-2.750;2023-11-18T11:54:06;10.77;;;3.53;;
81201;SDS011;71068;47.662;-2.750;2023-11-18T11:56:44;17.10;;;3.10;;
81201;SDS011;71068;47.662;-2.750;2023-11-18T12:04:51;15.18;;;3.38;;
81201;SDS011;71068;47.662;-2.750;2023-11-18T12:07:24;7.50;;;1.90;;
81201;SDS011;71068;47.662;-2.750;2023-11-18T12:09:57;5.57;;;1.73;;
81201;SDS011;71068;47.662;-2.750;2023-11-18T12:12:25;7.60;;;1.67;;
81201;SDS011;71068;47.662;-2.750;2023-11-18T12:14:58;6.22;;;1.88;;
81201;SDS011;71068;47.662;-2.750;2023-11-18T12:23:27;14.07;;;2.95;;
81201;SDS011;71068;47.662;-2.750;2023-11-18T12:25:54;20.02;;;2.95;;
81201;SDS011;71068;47.662;-2.750;2023-11-18T12:31:01;6.88;;;3.13;;
81201;SDS011;71068;47.662;-2.750;2023-11-18T12:45:42;11.70;;;3.28;;
81201;SDS011;71068;47.662;-2.750;2023-11-18T12:48:32;14.32;;;3.17;;
81201;SDS011;71068;47.662;-2.750;2023-11-18T12:51:02;14.45;;;3.03;;
81201;SDS011;71068;47.662;-2.750;2023-11-18T12:53:35;8.18;;;1.98;;
81201;SDS011;71068;47.662;-2.750;2023-11-18T12:56:04;14.73;;;2.92;;
81201;SDS011;71068;47.662;-2.750;2023-11-18T12:58:30;19.73;;;3.83;;
81201;SDS011;71068;47.662;-2.750;2023-11-18T13:00:58;23.35;;;3.28;;
81201;SDS011;71068;47.662;-2.750;2023-11-18T13:03:26;12.05;;;3.83;;
81201;SDS011;71068;47.662;-2.750;2023-11-18T13:05:53;13.35;;;2.72;;
81201;SDS011;71068;47.662;-2.750;2023-11-18T13:08:19;12.88;;;3.53;;
81201;SDS011;71068;47.662;-2.750;2023-11-18T13:10:47;13.02;;;2.53;;
81201;SDS011;71068;47.662;-2.750;2023-11-18T13:13:14;19.33;;;3.95;;
81201;SDS011;71068;47.662;-2.750;2023-11-18T13:15:42;11.93;;;3.28;;
81201;SDS011;71068;47.662;-2.750;2023-11-18T13:18:12;12.55;;;3.38;;
81201;SDS011;71068;47.662;-2.750;2023-11-18T13:20:53;13.70;;;3.30;;
81201;SDS011;71068;47.662;-2.750;2023-11-18T13:23:26;13.68;;;3.83;;
81201;SDS011;71068;47.662;-2.750;2023-11-18T13:25:57;13.00;;;2.63;;
81201;SDS011;71068;47.662;-2.750;2023-11-18T13:28:31;15.65;;;3.20;;
81201;SDS011;71068;47.662;-2.750;2023-11-18T13:30:57;13.43;;;3.75;;
81201;SDS011;71068;47.662;-2.750;2023-11-18T13:33:23;24.00;;;4.20;;
81201;SDS011;71068;47.662;-2.750;2023-11-18T13:35:49;28.08;;;3.75;;
81201;SDS011;71068;47.662;-2.750;2023-11-18T13:38:15;26.98;;;3.25;;
81201;SDS011;71068;47.662;-2.750;2023-11-18T13:40:47;6.45;;;2.45;;
81201;SDS011;71068;47.662;-2.750;2023-11-18T13:43:13;11.65;;;3.22;;
81201;SDS011;71068;47.662;-2.750;2023-11-18T13:45:40;12.23;;;2.90;;
81201;SDS011;71068;47.662;-2.750;2023-11-18T13:48:07;13.60;;;3.38;;
81201;SDS011;71068;47.662;-2.750;2023-11-18T13:50:37;13.63;;;2.28;;
81201;SDS011;71068;47.662;-2.750;2023-11-18T13:53:13;13.43;;;3.30;;
81201;SDS011;71068;47.662;-2.750;2023-11-18T13:55:40;1.63;;;1.13;;
81201;SDS011;71068;47.662;-2.750;2023-11-18T13:58:08;11.95;;;3.28;;
81201;SDS011;71068;47.662;-2.750;2023-11-18T14:00:39;14.85;;;2.42;;
81201;SDS011;71068;47.662;-2.750;2023-11-18T14:03:06;4.45;;;1.85;;
81201;SDS011;71068;47.662;-2.750;2023-11-18T14:05:35;13.50;;;2.85;;
81201;SDS011;71068;47.662;-2.750;2023-11-18T14:08:07;6.53;;;2.38;;
81201;SDS011;71068;47.662;-2.750;2023-11-18T14:10:39;8.25;;;2.22;;
81201;SDS011;71068;47.662;-2.750;2023-11-18T14:13:18;4.97;;;2.03;;
81201;SDS011;71068;47.662;-2.750;2023-11-18T14:15:44;11.25;;;2.40;;
81201;SDS011;71068;47.662;-2.750;2023-11-18T14:18:12;8.23;;;1.42;;
81201;SDS011;71068;47.662;-2.750;2023-11-18T14:20:39;12.82;;;2.55;;
81201;SDS011;71068;47.662;-2.750;2023-11-18T14:23:05;7.90;;;1.98;;
81201;SDS011;71068;47.662;-2.750;2023-11-18T14:25:36;11.45;;;2.58;;
81201;SDS011;71068;47.662;-2.750;2023-11-18T14:28:03;0.98;;;0.80;;
81201;SDS011;71068;47.662;-2.750;2023-11-18T14:30:30;8.85;;;1.77;;
81201;SDS011;71068;47.662;-2.750;2023-11-18T14:32:56;5.50;;;2.60;;
81201;SDS011;71068;47.662;-2.750;2023-11-18T14:35:22;4.15;;;2.22;;
81201;SDS011;71068;47.662;-2.750;2023-11-18T14:37:48;1.00;;;0.85;;
81201;SDS011;71068;47.662;-2.750;2023-11-18T14:40:15;7.22;;;1.85;;
81201;SDS011;71068;47.662;-2.750;2023-11-18T14:42:41;5.43;;;2.42;;
81201;SDS011;71068;47.662;-2.750;2023-11-18T14:45:14;4.22;;;1.38;;
81201;SDS011;71068;47.662;-2.750;2023-11-18T14:47:40;3.35;;;1.92;;
81201;SDS011;71068;47.662;-2.750;2023-11-18T14:50:10;4.13;;;1.27;;
81201;SDS011;71068;47.662;-2.750;2023-11-18T14:52:48;7.22;;;1.60;;
81201;SDS011;71068;47.662;-2.750;2023-11-18T14:55:17;7.68;;;1.85;;
81201;SDS011;71068;47.662;-2.750;2023-11-18T14:57:44;7.20;;;1.98;;
81201;SDS011;71068;47.662;-2.750;2023-11-18T15:00:11;14.32;;;2.50;;
81201;SDS011;71068;47.662;-2.750;2023-11-18T15:02:45;3.05;;;1.48;;
81201;SDS011;71068;47.662;-2.750;2023-11-18T15:05:18;2.78;;;1.10;;
81201;SDS011;71068;47.662;-2.750;2023-11-18T15:07:52;12.40;;;2.38;;
81201;SDS011;71068;47.662;-2.750;2023-11-18T15:10:20;17.48;;;3.10;;
81201;SDS011;71068;47.662;-2.750;2023-11-18T15:12:48;10.45;;;1.85;;
81201;SDS011;71068;47.662;-2.750;2023-11-18T15:15:24;6.43;;;3.05;;
81201;SDS011;71068;47.662;-2.750;2023-11-18T15:18:01;13.52;;;3.92;;
81201;SDS011;71068;47.662;-2.750;2023-11-18T15:20:38;13.30;;;2.92;;
81201;SDS011;71068;47.662;-2.750;2023-11-18T15:23:14;10.23;;;2.10;;
81201;SDS011;71068;47.662;-2.750;2023-11-18T15:25:51;3.47;;;1.80;;
81201;SDS011;71068;47.662;-2.750;2023-11-18T15:28:22;8.00;;;2.08;;
81201;SDS011;71068;47.662;-2.750;2023-11-18T15:30:48;7.22;;;2.08;;
81201;SDS011;71068;47.662;-2.750;2023-11-18T15:33:13;4.47;;;1.83;;
81201;SDS011;71068;47.662;-2.750;2023-11-18T15:38:12;9.38;;;2.40;;
81201;SDS011;71068;47.662;-2.750;2023-11-18T15:40:45;8.60;;;2.00;;
81201;SDS011;71068;47.662;-2.750;2023-11-18T15:43:14;4.97;;;1.20;;